Time;durP1;ratioP1;P1;durP2;ratioP2;P2;SDS_P1;SDS_P2;PMS_P1;PMS_P2;Temp;Humidity;BMP_temperature;BMP_pressure;BME280_temperature;BME280_humidity;BME280_pressure;Samples;Min_cycle;Max_cycle;Signal;HPM_P1;HPM_P2
2023/05/03 00:01:15;;;;;;;6.77;4.73;;;;;;;;;;5016304;28;20183;-77
2023/05/03 00:03:42;;;;;;;6.80;5.00;;;;;;;;;;5019103;28;20183;-77
2023/05/03 00:06:15;;;;;;;8.57;5.30;;;;;;;;;;5014852;28;20195;-77
2023/05/03 00:08:41;;;;;;;8.07;4.90;;;;;;;;;;5023449;28;20179;-77
2023/05/03 00:11:08;;;;;;;7.93;5.40;;;;;;;;;;5013575;28;20212;-77
2023/05/03 00:13:34;;;;;;;6.40;5.27;;;;;;;;;;5016788;28;20183;-77
2023/05/03 00:16:00;;;;;;;6.13;4.97;;;;;;;;;;5027320;28;20179;-77
2023/05/03 00:18:27;;;;;;;7.13;5.30;;;;;;;;;;5022687;28;20190;-77
2023/05/03 00:20:54;;;;;;;8.50;5.90;;;;;;;;;;5017916;28;20258;-77
2023/05/03 00:23:20;;;;;;;7.70;4.83;;;;;;;;;;5014336;28;20207;-77
2023/05/03 00:25:47;;;;;;;9.03;6.00;;;;;;;;;;5032937;28;20201;-77
2023/05/03 00:28:13;;;;;;;7.60;5.20;;;;;;;;;;5031338;28;20204;-77
2023/05/03 00:30:39;;;;;;;9.47;6.13;;;;;;;;;;5016198;28;21154;-77
2023/05/03 00:33:05;;;;;;;7.47;5.07;;;;;;;;;;5032040;28;20189;-77
2023/05/03 00:35:31;;;;;;;7.90;5.83;;;;;;;;;;5028043;28;20183;-76
2023/05/03 00:37:57;;;;;;;6.70;5.30;;;;;;;;;;5013228;28;20441;-77
2023/05/03 00:40:23;;;;;;;9.23;5.07;;;;;;;;;;5024644;28;20179;-77
2023/05/03 00:42:50;;;;;;;7.50;5.70;;;;;;;;;;5021588;28;20252;-77
2023/05/03 00:45:16;;;;;;;8.93;5.43;;;;;;;;;;5032222;28;20175;-77
2023/05/03 00:47:42;;;;;;;9.23;5.17;;;;;;;;;;5028515;28;20256;-77
2023/05/03 00:50:10;;;;;;;8.03;5.27;;;;;;;;;;5020200;28;20526;-77
2023/05/03 00:52:37;;;;;;;9.20;5.67;;;;;;;;;;5015284;28;20678;-77
2023/05/03 00:55:03;;;;;;;7.23;5.20;;;;;;;;;;5031419;28;20198;-77
2023/05/03 00:57:30;;;;;;;6.70;5.07;;;;;;;;;;5021679;28;20707;-76
2023/05/03 00:59:57;;;;;;;7.47;4.90;;;;;;;;;;5014821;28;20238;-77
2023/05/03 01:02:23;;;;;;;5.87;4.60;;;;;;;;;;5023821;28;20207;-77
2023/05/03 01:04:50;;;;;;;6.27;5.10;;;;;;;;;;5017478;28;20572;-77
2023/05/03 01:07:32;;;;;;;7.23;5.53;;;;;;;;;;5017320;28;20218;-76
2023/05/03 01:10:18;;;;;;;8.03;5.73;;;;;;;;;;5013606;28;20183;-77
2023/05/03 01:12:48;;;;;;;8.07;6.30;;;;;;;;;;5017570;28;20273;-77
2023/05/03 01:15:16;;;;;;;9.90;5.93;;;;;;;;;;5013947;28;20191;-76
2023/05/03 01:17:49;;;;;;;8.40;6.03;;;;;;;;;;5014581;28;20207;-77
2023/05/03 01:20:17;;;;;;;10.17;5.93;;;;;;;;;;5027784;28;20262;-77
2023/05/03 01:22:54;;;;;;;7.53;5.90;;;;;;;;;;5004413;28;20761;-76
2023/05/03 01:25:20;;;;;;;9.97;5.53;;;;;;;;;;5016287;28;20183;-77
2023/05/03 01:27:46;;;;;;;8.80;6.60;;;;;;;;;;5027934;28;20198;-77
2023/05/03 01:30:13;;;;;;;10.33;6.17;;;;;;;;;;5031428;28;20178;-77
2023/05/03 01:32:46;;;;;;;9.97;6.10;;;;;;;;;;5014465;28;20198;-77
2023/05/03 01:35:23;;;;;;;11.53;6.80;;;;;;;;;;5021905;28;20232;-76
2023/05/03 01:37:49;;;;;;;9.70;6.47;;;;;;;;;;5026309;28;20256;-77
2023/05/03 01:40:18;;;;;;;9.40;6.20;;;;;;;;;;5013136;28;20202;-77
2023/05/03 01:42:45;;;;;;;8.83;6.43;;;;;;;;;;5025604;28;20210;-77
2023/05/03 01:45:12;;;;;;;9.73;6.43;;;;;;;;;;5012899;28;20251;-77
2023/05/03 01:47:38;;;;;;;9.50;6.53;;;;;;;;;;5012975;28;20206;-77
2023/05/03 01:50:04;;;;;;;6.53;5.43;;;;;;;;;;5019440;28;20247;-76
2023/05/03 01:52:30;;;;;;;8.70;6.20;;;;;;;;;;5030740;28;20182;-77
2023/05/03 01:54:56;;;;;;;8.50;5.50;;;;;;;;;;5016437;28;20199;-77
2023/05/03 01:57:22;;;;;;;6.70;4.53;;;;;;;;;;5016452;28;20269;-77
2023/05/03 01:59:49;;;;;;;7.33;5.37;;;;;;;;;;5018828;28;20171;-76
2023/05/03 02:02:15;;;;;;;8.33;6.07;;;;;;;;;;5021119;28;20202;-77
2023/05/03 02:04:41;;;;;;;7.07;5.20;;;;;;;;;;5026164;28;20175;-77
2023/05/03 02:07:08;;;;;;;8.57;5.83;;;;;;;;;;5032019;28;20686;-77
2023/05/03 02:09:34;;;;;;;8.60;5.73;;;;;;;;;;5030610;28;20575;-77
2023/05/03 02:12:00;;;;;;;10.30;5.80;;;;;;;;;;5023485;28;20206;-77
2023/05/03 02:14:27;;;;;;;9.50;6.27;;;;;;;;;;5010960;28;20577;-77
2023/05/03 02:16:54;;;;;;;8.50;6.07;;;;;;;;;;5011931;28;20586;-76
2023/05/03 02:19:20;;;;;;;7.93;5.00;;;;;;;;;;5011992;28;20649;-77
2023/05/03 02:21:47;;;;;;;10.17;5.40;;;;;;;;;;5029603;28;20206;-76
2023/05/03 02:24:13;;;;;;;8.23;6.00;;;;;;;;;;5014274;28;20180;-77
2023/05/03 02:26:39;;;;;;;8.57;6.47;;;;;;;;;;5030801;28;20244;-77
2023/05/03 02:29:06;;;;;;;9.93;5.77;;;;;;;;;;5028456;28;20175;-77
2023/05/03 02:31:32;;;;;;;7.57;5.97;;;;;;;;;;5022396;28;20193;-77
2023/05/03 02:33:59;;;;;;;8.70;5.70;;;;;;;;;;5030184;28;20285;-77
2023/05/03 02:36:26;;;;;;;8.20;5.70;;;;;;;;;;5012453;28;20318;-77
2023/05/03 02:38:52;;;;;;;9.73;6.27;;;;;;;;;;5011302;28;20195;-77
2023/05/03 02:41:18;;;;;;;8.50;6.07;;;;;;;;;;5020365;28;20205;-77
2023/05/03 02:43:45;;;;;;;9.90;6.67;;;;;;;;;;5031054;28;20171;-77
2023/05/03 02:46:12;;;;;;;7.20;5.93;;;;;;;;;;5029888;28;20232;-76
2023/05/03 02:48:39;;;;;;;7.67;5.77;;;;;;;;;;5028407;28;20229;-77
2023/05/03 02:51:05;;;;;;;6.40;5.70;;;;;;;;;;5021931;28;20187;-77
2023/05/03 02:53:31;;;;;;;12.00;6.47;;;;;;;;;;5014445;28;20266;-76
2023/05/03 02:56:01;;;;;;;11.00;6.83;;;;;;;;;;5025069;28;20198;-77
2023/05/03 02:58:28;;;;;;;5.93;4.97;;;;;;;;;;5014929;28;20571;-76
2023/05/03 03:00:54;;;;;;;8.17;5.13;;;;;;;;;;5011903;28;20197;-77
2023/05/03 03:03:21;;;;;;;7.97;5.73;;;;;;;;;;5033073;28;20210;-76
2023/05/03 03:05:47;;;;;;;8.30;6.80;;;;;;;;;;5033922;28;20269;-77
2023/05/03 03:08:14;;;;;;;8.10;5.80;;;;;;;;;;5017294;28;20229;-76
2023/05/03 03:10:41;;;;;;;6.67;5.20;;;;;;;;;;5035282;28;20175;-77
2023/05/03 03:13:08;;;;;;;8.00;6.40;;;;;;;;;;5032555;28;20410;-76
2023/05/03 03:15:37;;;;;;;9.17;5.53;;;;;;;;;;5018061;28;20635;-77
2023/05/03 03:18:03;;;;;;;11.00;6.03;;;;;;;;;;5014887;28;20191;-77
2023/05/03 03:20:30;;;;;;;11.10;6.17;;;;;;;;;;5032223;28;20191;-77
2023/05/03 03:22:56;;;;;;;11.73;6.57;;;;;;;;;;5032508;28;20653;-76
2023/05/03 03:25:22;;;;;;;8.77;6.67;;;;;;;;;;5018101;28;20210;-76
2023/05/03 03:27:49;;;;;;;8.10;5.70;;;;;;;;;;5013397;28;20198;-76
2023/05/03 03:30:15;;;;;;;10.23;6.30;;;;;;;;;;5014628;28;20183;-77
2023/05/03 03:32:52;;;;;;;9.90;6.20;;;;;;;;;;4997072;28;20213;-77
2023/05/03 03:35:26;;;;;;;10.40;6.40;;;;;;;;;;5014639;28;20175;-77
2023/05/03 03:37:53;;;;;;;9.53;6.50;;;;;;;;;;5013476;28;20202;-77
2023/05/03 03:40:20;;;;;;;9.67;6.10;;;;;;;;;;5019247;28;20187;-77
2023/05/03 03:42:47;;;;;;;9.83;6.23;;;;;;;;;;5011568;28;20290;-77
2023/05/03 03:45:13;;;;;;;11.03;6.87;;;;;;;;;;5014613;28;20210;-77
2023/05/03 03:47:39;;;;;;;10.97;6.80;;;;;;;;;;5034308;28;20845;-76
2023/05/03 03:50:06;;;;;;;9.53;6.30;;;;;;;;;;5022507;28;20191;-76
2023/05/03 03:52:33;;;;;;;7.63;6.00;;;;;;;;;;5021615;28;20186;-77
2023/05/03 03:55:00;;;;;;;8.97;5.67;;;;;;;;;;4996352;28;20203;-77
2023/05/03 03:57:29;;;;;;;8.90;6.23;;;;;;;;;;5015511;28;20582;-77
2023/05/03 03:59:56;;;;;;;9.03;6.63;;;;;;;;;;5022928;28;20194;-76
2023/05/03 04:02:23;;;;;;;10.10;6.37;;;;;;;;;;5001213;28;20218;-77
2023/05/03 04:04:50;;;;;;;10.30;5.97;;;;;;;;;;5013202;28;20184;-76
2023/05/03 04:07:17;;;;;;;10.10;6.17;;;;;;;;;;5021602;28;20225;-76
2023/05/03 04:09:44;;;;;;;9.03;6.47;;;;;;;;;;5017685;28;20194;-77
2023/05/03 04:12:11;;;;;;;11.67;6.37;;;;;;;;;;5012445;28;20191;-77
2023/05/03 04:14:38;;;;;;;10.03;7.40;;;;;;;;;;5018264;28;20224;-76
2023/05/03 04:17:04;;;;;;;8.37;6.20;;;;;;;;;;5016074;28;20229;-77
2023/05/03 04:19:31;;;;;;;11.37;6.60;;;;;;;;;;5020055;28;20191;-77
2023/05/03 04:21:57;;;;;;;8.33;7.10;;;;;;;;;;5016238;28;20206;-76
2023/05/03 04:24:24;;;;;;;10.73;6.73;;;;;;;;;;5006069;28;20179;-76
2023/05/03 04:26:50;;;;;;;12.33;6.50;;;;;;;;;;5034579;28;20198;-77
2023/05/03 04:29:22;;;;;;;12.33;7.27;;;;;;;;;;5032570;28;20205;-77
2023/05/03 04:31:49;;;;;;;9.23;6.90;;;;;;;;;;5032589;28;20662;-77
2023/05/03 04:34:16;;;;;;;9.13;6.37;;;;;;;;;;5005278;28;20183;-77
2023/05/03 04:36:46;;;;;;;11.50;6.90;;;;;;;;;;5016270;28;20206;-76
2023/05/03 04:39:14;;;;;;;8.63;6.67;;;;;;;;;;5026619;28;20206;-77
2023/05/03 04:41:41;;;;;;;9.60;6.40;;;;;;;;;;5030578;28;20712;-77
2023/05/03 04:44:07;;;;;;;10.23;6.80;;;;;;;;;;5022374;28;20183;-77
2023/05/03 04:46:34;;;;;;;14.20;9.07;;;;;;;;;;5022668;28;20203;-77
2023/05/03 04:49:00;;;;;;;13.20;6.30;;;;;;;;;;5013707;28;20531;-77
2023/05/03 04:51:27;;;;;;;10.70;6.83;;;;;;;;;;5012272;28;20238;-76
2023/05/03 04:53:54;;;;;;;10.83;6.70;;;;;;;;;;4995552;28;20175;-77
2023/05/03 04:56:25;;;;;;;9.97;6.30;;;;;;;;;;5032355;28;20294;-77
2023/05/03 04:58:53;;;;;;;8.90;6.00;;;;;;;;;;5032296;28;20167;-76
2023/05/03 05:01:25;;;;;;;9.90;5.87;;;;;;;;;;5032836;28;20842;-77
2023/05/03 05:03:52;;;;;;;11.53;7.07;;;;;;;;;;5031814;28;20174;-77
2023/05/03 05:06:22;;;;;;;11.90;7.53;;;;;;;;;;5011433;28;20211;-77
2023/05/03 05:08:48;;;;;;;9.83;6.63;;;;;;;;;;5013215;28;20272;-77
2023/05/03 05:11:14;;;;;;;10.80;6.77;;;;;;;;;;5001049;28;20190;-77
2023/05/03 05:13:40;;;;;;;10.13;7.00;;;;;;;;;;5031275;28;20584;-77
2023/05/03 05:16:07;;;;;;;12.60;6.87;;;;;;;;;;5022338;28;20179;-77
2023/05/03 05:18:34;;;;;;;9.60;6.73;;;;;;;;;;5011755;28;20782;-77
2023/05/03 05:21:02;;;;;;;9.60;7.07;;;;;;;;;;4995936;28;20187;-77
2023/05/03 05:23:29;;;;;;;11.77;6.60;;;;;;;;;;5011206;28;20215;-77
2023/05/03 05:25:59;;;;;;;10.23;6.13;;;;;;;;;;4995060;28;20651;-77
2023/05/03 05:28:27;;;;;;;9.80;7.13;;;;;;;;;;5015444;28;20520;-77
2023/05/03 05:30:54;;;;;;;10.90;7.23;;;;;;;;;;4997222;28;20237;-77
2023/05/03 05:33:21;;;;;;;11.30;6.73;;;;;;;;;;5020667;28;20194;-76
2023/05/03 05:35:49;;;;;;;8.50;6.47;;;;;;;;;;5008434;28;20721;-77
2023/05/03 05:38:17;;;;;;;9.57;7.40;;;;;;;;;;5004529;28;20202;-77
2023/05/03 05:40:44;;;;;;;11.77;7.20;;;;;;;;;;5019877;28;20188;-76
2023/05/03 05:43:10;;;;;;;9.90;6.80;;;;;;;;;;5018943;28;20293;-77
2023/05/03 05:45:39;;;;;;;8.70;6.90;;;;;;;;;;5025590;28;20595;-77
2023/05/03 05:48:07;;;;;;;10.13;6.57;;;;;;;;;;5022633;28;20206;-80
2023/05/03 05:50:33;;;;;;;9.20;6.70;;;;;;;;;;5028798;28;20601;-80
2023/05/03 05:53:04;;;;;;;11.37;7.03;;;;;;;;;;5030633;28;20185;-73
2023/05/03 05:55:35;;;;;;;9.70;6.97;;;;;;;;;;5013454;28;20263;-74
2023/05/03 05:58:01;;;;;;;10.93;7.23;;;;;;;;;;5020977;28;20202;-73
2023/05/03 06:00:35;;;;;;;10.47;6.70;;;;;;;;;;5010127;28;20186;-74
2023/05/03 06:03:01;;;;;;;8.00;6.40;;;;;;;;;;5017103;28;20602;-74
2023/05/03 06:05:27;;;;;;;10.27;6.50;;;;;;;;;;5029628;28;20189;-74
2023/05/03 06:07:53;;;;;;;8.40;5.97;;;;;;;;;;5039598;28;20735;-75
2023/05/03 06:10:20;;;;;;;11.97;7.10;;;;;;;;;;5030030;28;20178;-73
2023/05/03 06:12:50;;;;;;;9.67;6.57;;;;;;;;;;5017333;28;20187;-75
2023/05/03 06:15:24;;;;;;;12.90;7.73;;;;;;;;;;5027843;28;20196;-75
2023/05/03 06:17:50;;;;;;;12.83;6.83;;;;;;;;;;5021890;28;20688;-74
2023/05/03 06:20:17;;;;;;;9.47;6.77;;;;;;;;;;5029759;28;20178;-75
2023/05/03 06:22:43;;;;;;;8.90;6.80;;;;;;;;;;5013126;28;20889;-75
2023/05/03 06:25:13;;;;;;;9.27;6.70;;;;;;;;;;5014665;28;20183;-74
2023/05/03 06:27:41;;;;;;;8.93;6.50;;;;;;;;;;5026272;28;20210;-74
2023/05/03 06:30:07;;;;;;;10.87;6.63;;;;;;;;;;5010717;28;20191;-74
2023/05/03 06:32:34;;;;;;;8.70;6.47;;;;;;;;;;5015178;28;20193;-75
2023/05/03 06:35:00;;;;;;;7.60;5.67;;;;;;;;;;5029893;28;20580;-75
2023/05/03 06:37:28;;;;;;;9.00;5.90;;;;;;;;;;5032871;28;20243;-75
2023/05/03 06:39:54;;;;;;;9.17;6.10;;;;;;;;;;5028692;28;20179;-74
2023/05/03 06:42:20;;;;;;;8.03;5.97;;;;;;;;;;5032863;28;20206;-75
2023/05/03 06:44:47;;;;;;;9.40;5.63;;;;;;;;;;5033054;28;20258;-74
2023/05/03 06:47:13;;;;;;;12.83;6.20;;;;;;;;;;5022060;28;20214;-75
2023/05/03 06:49:40;;;;;;;10.90;5.73;;;;;;;;;;5018443;28;20172;-75
2023/05/03 06:52:06;;;;;;;9.03;5.83;;;;;;;;;;5019074;28;20194;-74
2023/05/03 06:54:32;;;;;;;8.90;5.70;;;;;;;;;;5015605;28;20242;-76
2023/05/03 06:56:58;;;;;;;12.33;5.73;;;;;;;;;;5015936;28;20214;-75
2023/05/03 06:59:25;;;;;;;8.93;5.50;;;;;;;;;;5028932;28;20183;-75
2023/05/03 07:01:51;;;;;;;7.70;5.37;;;;;;;;;;5028789;28;20214;-75
2023/05/03 07:04:17;;;;;;;6.63;5.23;;;;;;;;;;5028194;28;20187;-75
2023/05/03 07:06:44;;;;;;;8.90;5.33;;;;;;;;;;5023661;28;20222;-75
2023/05/03 07:09:10;;;;;;;10.73;5.60;;;;;;;;;;5013051;28;20172;-75
2023/05/03 07:11:38;;;;;;;9.07;5.97;;;;;;;;;;5011892;28;20182;-75
2023/05/03 07:14:04;;;;;;;11.47;5.47;;;;;;;;;;5012612;28;20197;-75
2023/05/03 07:16:30;;;;;;;9.27;6.00;;;;;;;;;;5012860;28;20203;-74
2023/05/03 07:19:01;;;;;;;9.90;5.73;;;;;;;;;;5015364;28;20195;-75
2023/05/03 07:21:54;;;;;;;8.57;5.40;;;;;;;;;;5014665;28;20605;-75
2023/05/03 07:24:20;;;;;;;7.67;5.30;;;;;;;;;;5029353;28;20183;-75
2023/05/03 07:26:46;;;;;;;7.70;5.17;;;;;;;;;;5029361;28;20202;-75
2023/05/03 07:29:13;;;;;;;7.57;5.30;;;;;;;;;;5014140;28;20584;-74
2023/05/03 07:31:39;;;;;;;8.53;5.77;;;;;;;;;;5014236;28;20194;-75
2023/05/03 07:34:06;;;;;;;6.93;5.37;;;;;;;;;;5013869;28;20552;-75
2023/05/03 07:36:32;;;;;;;9.83;5.77;;;;;;;;;;5013970;28;20195;-75
2023/05/03 07:38:58;;;;;;;8.97;5.60;;;;;;;;;;5014097;28;20189;-75
2023/05/03 07:41:25;;;;;;;11.23;5.63;;;;;;;;;;5014101;28;20171;-75
2023/05/03 07:43:51;;;;;;;10.40;5.53;;;;;;;;;;5013702;28;20175;-75
2023/05/03 07:46:17;;;;;;;7.87;5.37;;;;;;;;;;5014019;28;20333;-75
2023/05/03 07:48:43;;;;;;;8.07;4.97;;;;;;;;;;5027881;28;20187;-75
2023/05/03 07:51:09;;;;;;;9.10;4.60;;;;;;;;;;5012999;28;20201;-75
2023/05/03 07:53:38;;;;;;;7.67;4.70;;;;;;;;;;5013361;28;20592;-75
2023/05/03 07:56:04;;;;;;;9.77;5.37;;;;;;;;;;5013579;28;20206;-75
2023/05/03 07:58:30;;;;;;;9.90;5.00;;;;;;;;;;5013742;28;20175;-75
2023/05/03 08:00:57;;;;;;;9.40;5.07;;;;;;;;;;5013675;28;20244;-75
2023/05/03 08:03:23;;;;;;;10.90;5.60;;;;;;;;;;4995672;28;20217;-75
2023/05/03 08:05:49;;;;;;;9.77;5.03;;;;;;;;;;5013577;28;20543;-75
2023/05/03 08:08:15;;;;;;;6.90;5.10;;;;;;;;;;5013471;28;20214;-75
2023/05/03 08:10:41;;;;;;;6.63;5.40;;;;;;;;;;5013373;28;20217;-75
2023/05/03 08:13:07;;;;;;;6.27;4.53;;;;;;;;;;5013330;28;20550;-74
2023/05/03 08:15:33;;;;;;;8.30;5.07;;;;;;;;;;5013450;28;20186;-74
2023/05/03 08:18:00;;;;;;;9.23;5.40;;;;;;;;;;5013328;28;20294;-74
2023/05/03 08:20:26;;;;;;;9.20;5.30;;;;;;;;;;5013168;28;20184;-74
2023/05/03 08:22:55;;;;;;;6.80;4.93;;;;;;;;;;5012756;28;20217;-74
2023/05/03 08:25:24;;;;;;;9.10;5.23;;;;;;;;;;5012105;28;20190;-74
2023/05/03 08:27:51;;;;;;;9.43;6.00;;;;;;;;;;5012914;28;20271;-74
2023/05/03 08:30:18;;;;;;;8.43;5.47;;;;;;;;;;5013133;28;20181;-74
2023/05/03 08:32:44;;;;;;;9.73;6.00;;;;;;;;;;5012910;28;21022;-73
2023/05/03 08:35:12;;;;;;;10.53;5.77;;;;;;;;;;5013118;28;20179;-74
2023/05/03 08:37:42;;;;;;;7.47;5.10;;;;;;;;;;5012811;28;20210;-74
2023/05/03 08:40:12;;;;;;;7.70;5.30;;;;;;;;;;5013255;28;20652;-74
2023/05/03 08:42:48;;;;;;;6.17;4.60;;;;;;;;;;5013626;28;20211;-74
2023/05/03 08:45:15;;;;;;;6.93;4.63;;;;;;;;;;5012752;28;20175;-74
2023/05/03 08:47:43;;;;;;;7.20;4.87;;;;;;;;;;5028073;28;20195;-74
2023/05/03 08:50:10;;;;;;;7.20;5.03;;;;;;;;;;5012448;28;20179;-74
2023/05/03 08:52:38;;;;;;;7.10;4.77;;;;;;;;;;5012538;28;20191;-74
2023/05/03 08:55:06;;;;;;;7.27;4.90;;;;;;;;;;5012665;28;20199;-74
2023/05/03 08:57:34;;;;;;;7.47;4.60;;;;;;;;;;5012675;28;20195;-74
2023/05/03 09:00:01;;;;;;;8.27;4.97;;;;;;;;;;5012207;28;20179;-74
2023/05/03 09:02:27;;;;;;;8.33;5.13;;;;;;;;;;5012596;28;20674;-74
2023/05/03 09:04:55;;;;;;;8.23;4.83;;;;;;;;;;5012285;28;20217;-74
2023/05/03 09:07:21;;;;;;;6.30;4.93;;;;;;;;;;5012760;28;20574;-74
2023/05/03 09:09:47;;;;;;;4.87;4.30;;;;;;;;;;5013249;28;20172;-74
2023/05/03 09:12:32;;;;;;;7.13;4.50;;;;;;;;;;5023028;28;20274;-74
2023/05/03 09:14:59;;;;;;;7.73;4.57;;;;;;;;;;5025080;28;20197;-74
2023/05/03 09:17:25;;;;;;;7.53;5.00;;;;;;;;;;5018206;28;20231;-74
2023/05/03 09:19:53;;;;;;;7.87;5.17;;;;;;;;;;5027878;28;20661;-74
2023/05/03 09:22:20;;;;;;;7.70;4.97;;;;;;;;;;5030319;28;20202;-74
2023/05/03 09:24:56;;;;;;;7.20;4.60;;;;;;;;;;5003781;28;20268;-74
2023/05/03 09:27:23;;;;;;;7.40;5.07;;;;;;;;;;5036167;28;20198;-75
2023/05/03 09:29:49;;;;;;;6.10;4.90;;;;;;;;;;5051776;28;20173;-73
2023/05/03 09:32:16;;;;;;;7.57;5.00;;;;;;;;;;5051095;28;20217;-74
2023/05/03 09:34:43;;;;;;;9.90;5.67;;;;;;;;;;5051907;28;20260;-75
2023/05/03 09:37:09;;;;;;;7.27;5.47;;;;;;;;;;5051264;28;20628;-74
2023/05/03 09:39:38;;;;;;;11.53;5.83;;;;;;;;;;5051666;28;20173;-75
2023/05/03 09:42:14;;;;;;;7.23;5.63;;;;;;;;;;5048978;28;20681;-74
2023/05/03 09:44:42;;;;;;;8.27;5.90;;;;;;;;;;5030459;28;20185;-74
2023/05/03 09:47:08;;;;;;;6.27;5.43;;;;;;;;;;5031569;28;20623;-74
2023/05/03 09:49:37;;;;;;;6.33;5.50;;;;;;;;;;5031886;28;20635;-74
2023/05/03 09:52:05;;;;;;;6.23;4.83;;;;;;;;;;5031417;28;20179;-74
2023/05/03 09:54:31;;;;;;;11.47;5.80;;;;;;;;;;5031380;28;20196;-75
2023/05/03 09:56:58;;;;;;;7.60;5.23;;;;;;;;;;5031369;28;20198;-75
2023/05/03 09:59:24;;;;;;;7.27;5.43;;;;;;;;;;5031498;28;20222;-74
2023/05/03 10:01:52;;;;;;;7.33;5.40;;;;;;;;;;5030312;28;20210;-75
2023/05/03 10:04:21;;;;;;;7.20;5.50;;;;;;;;;;5029909;28;20213;-75
2023/05/03 10:06:48;;;;;;;7.57;5.57;;;;;;;;;;5029864;28;20186;-74
2023/05/03 10:09:33;;;;;;;6.80;5.80;;;;;;;;;;5031195;28;20179;-75
2023/05/03 10:12:01;;;;;;;9.27;5.70;;;;;;;;;;5029365;28;20182;-74
2023/05/03 10:14:27;;;;;;;8.27;6.40;;;;;;;;;;5031049;28;20723;-75
2023/05/03 10:16:57;;;;;;;8.67;5.33;;;;;;;;;;5030971;28;20203;-74
2023/05/03 10:19:25;;;;;;;6.23;4.70;;;;;;;;;;5031219;28;20265;-75
2023/05/03 10:22:05;;;;;;;7.80;4.83;;;;;;;;;;5029820;28;20210;-74
2023/05/03 10:24:32;;;;;;;5.63;4.57;;;;;;;;;;5029785;28;20218;-75
2023/05/03 10:26:58;;;;;;;8.57;5.07;;;;;;;;;;5032470;28;20616;-75
2023/05/03 10:29:34;;;;;;;5.73;4.23;;;;;;;;;;5031155;28;20854;-75
2023/05/03 10:32:04;;;;;;;6.83;4.23;;;;;;;;;;5013178;28;20201;-75
2023/05/03 10:34:34;;;;;;;7.63;4.30;;;;;;;;;;5029786;28;20192;-75
2023/05/03 10:37:02;;;;;;;7.03;4.70;;;;;;;;;;5031015;28;20198;-75
2023/05/03 10:39:28;;;;;;;6.97;4.70;;;;;;;;;;5029757;28;20244;-75
2023/05/03 10:41:58;;;;;;;6.83;4.60;;;;;;;;;;5030807;28;20299;-75
2023/05/03 10:44:28;;;;;;;6.30;4.00;;;;;;;;;;5029826;28;20252;-75
2023/05/03 10:46:54;;;;;;;5.20;4.30;;;;;;;;;;5030987;28;20244;-75
2023/05/03 10:49:21;;;;;;;6.10;4.30;;;;;;;;;;5031036;28;20256;-75
2023/05/03 10:51:48;;;;;;;4.50;3.90;;;;;;;;;;5030717;28;20180;-74
2023/05/03 10:54:15;;;;;;;5.10;3.90;;;;;;;;;;5029203;28;20688;-75
2023/05/03 10:56:52;;;;;;;6.97;4.63;;;;;;;;;;5029404;28;20202;-75
2023/05/03 10:59:18;;;;;;;5.60;4.00;;;;;;;;;;5030923;28;20170;-75
2023/05/03 11:01:45;;;;;;;6.00;4.23;;;;;;;;;;5029174;28;20584;-75
2023/05/03 11:04:12;;;;;;;7.20;4.60;;;;;;;;;;5029773;28;20528;-75
2023/05/03 11:06:40;;;;;;;7.60;4.77;;;;;;;;;;5029433;28;20767;-75
2023/05/03 11:09:07;;;;;;;6.23;5.20;;;;;;;;;;5029521;28;20201;-74
2023/05/03 11:11:33;;;;;;;5.83;4.43;;;;;;;;;;5030448;28;20178;-74
2023/05/03 11:13:59;;;;;;;6.03;4.20;;;;;;;;;;5030428;28;20178;-74
2023/05/03 11:16:26;;;;;;;5.00;3.43;;;;;;;;;;5030723;28;20281;-74
2023/05/03 11:18:52;;;;;;;6.53;4.00;;;;;;;;;;5030407;28;20185;-74
2023/05/03 11:21:18;;;;;;;6.33;3.90;;;;;;;;;;5032519;28;20189;-74
2023/05/03 11:23:45;;;;;;;6.40;4.20;;;;;;;;;;5032263;28;20217;-74
2023/05/03 11:26:11;;;;;;;6.63;4.70;;;;;;;;;;5036098;28;20210;-73
2023/05/03 11:28:38;;;;;;;6.57;3.50;;;;;;;;;;5054076;28;20177;-74
2023/05/03 11:31:05;;;;;;;4.60;3.60;;;;;;;;;;5053898;28;20178;-74
2023/05/03 11:33:33;;;;;;;4.73;3.30;;;;;;;;;;5053407;28;20189;-74
2023/05/03 11:36:04;;;;;;;7.13;4.10;;;;;;;;;;5053810;28;20174;-74
2023/05/03 11:38:31;;;;;;;6.03;4.10;;;;;;;;;;5053769;28;20312;-74
2023/05/03 11:40:58;;;;;;;5.40;4.00;;;;;;;;;;5053830;28;20178;-74
2023/05/03 11:43:25;;;;;;;6.07;5.03;;;;;;;;;;5052936;28;20228;-74
2023/05/03 11:45:52;;;;;;;6.37;4.10;;;;;;;;;;5053785;28;20235;-74
2023/05/03 11:48:18;;;;;;;4.40;4.00;;;;;;;;;;5053348;28;20271;-74
2023/05/03 11:50:50;;;;;;;6.30;4.30;;;;;;;;;;5052752;28;20217;-75
2023/05/03 11:53:17;;;;;;;6.27;4.30;;;;;;;;;;5053227;28;20188;-74
2023/05/03 11:55:45;;;;;;;4.80;4.00;;;;;;;;;;5053604;28;20223;-75
2023/05/03 11:58:13;;;;;;;11.57;4.30;;;;;;;;;;5053438;28;20710;-75
2023/05/03 12:00:40;;;;;;;4.63;4.00;;;;;;;;;;5052513;28;20637;-75
2023/05/03 12:03:07;;;;;;;7.30;4.00;;;;;;;;;;5053188;28;20213;-75
2023/05/03 12:05:33;;;;;;;4.83;3.83;;;;;;;;;;5052446;28;20178;-75
2023/05/03 12:07:59;;;;;;;5.00;3.60;;;;;;;;;;5053129;28;20685;-75
2023/05/03 12:10:30;;;;;;;6.77;3.90;;;;;;;;;;5052201;28;20186;-77
2023/05/03 12:12:58;;;;;;;5.03;4.13;;;;;;;;;;5047535;28;20209;-74
2023/05/03 12:15:29;;;;;;;4.87;3.70;;;;;;;;;;5047803;28;20184;-75
2023/05/03 12:17:55;;;;;;;4.53;3.80;;;;;;;;;;5047841;28;20218;-75
2023/05/03 12:20:22;;;;;;;4.93;3.70;;;;;;;;;;5045145;28;20192;-75
2023/05/03 12:22:52;;;;;;;5.80;3.53;;;;;;;;;;5032839;28;20243;-75
2023/05/03 12:25:18;;;;;;;4.77;3.20;;;;;;;;;;5033403;28;20167;-75
2023/05/03 12:27:45;;;;;;;4.00;3.00;;;;;;;;;;5033164;28;20201;-75
2023/05/03 12:30:11;;;;;;;5.33;3.60;;;;;;;;;;5033156;28;20600;-75
2023/05/03 12:32:38;;;;;;;5.20;3.90;;;;;;;;;;5032792;28;20189;-75
2023/05/03 12:35:05;;;;;;;5.27;3.70;;;;;;;;;;5032560;28;20175;-75
2023/05/03 12:37:31;;;;;;;4.60;3.27;;;;;;;;;;5032740;28;20206;-75
2023/05/03 12:39:57;;;;;;;4.70;3.10;;;;;;;;;;5032978;28;20185;-75
2023/05/03 12:42:24;;;;;;;3.13;2.80;;;;;;;;;;5039936;28;20700;-74
2023/05/03 12:44:51;;;;;;;4.60;3.20;;;;;;;;;;5052898;28;20621;-75
2023/05/03 12:47:17;;;;;;;3.17;2.60;;;;;;;;;;5045933;28;20588;-75
2023/05/03 12:49:43;;;;;;;3.23;2.80;;;;;;;;;;5032745;28;20182;-75
2023/05/03 12:52:10;;;;;;;6.00;2.80;;;;;;;;;;5032280;28;20261;-75
2023/05/03 12:54:37;;;;;;;3.53;2.70;;;;;;;;;;5032760;28;20273;-75
2023/05/03 12:57:03;;;;;;;6.40;2.97;;;;;;;;;;5036359;28;20681;-76
2023/05/03 12:59:29;;;;;;;5.20;3.40;;;;;;;;;;5052159;28;20253;-76
2023/05/03 13:01:56;;;;;;;3.83;3.00;;;;;;;;;;5052247;28;20209;-76
2023/05/03 13:04:22;;;;;;;4.43;3.47;;;;;;;;;;5049914;28;20173;-76
2023/05/03 13:06:49;;;;;;;3.47;2.83;;;;;;;;;;5052175;28;20569;-75
2023/05/03 13:09:18;;;;;;;4.30;3.27;;;;;;;;;;5051940;28;20178;-75
2023/05/03 13:11:45;;;;;;;3.57;2.60;;;;;;;;;;5052057;28;20219;-76
2023/05/03 13:14:14;;;;;;;3.87;2.57;;;;;;;;;;5050509;28;20186;-75
2023/05/03 13:16:44;;;;;;;3.23;2.20;;;;;;;;;;5052026;28;20182;-75
2023/05/03 13:19:13;;;;;;;3.30;2.70;;;;;;;;;;5012132;28;20265;-75
2023/05/03 13:21:39;;;;;;;3.33;2.53;;;;;;;;;;5012526;28;20195;-76
2023/05/03 13:24:05;;;;;;;3.53;2.63;;;;;;;;;;5051027;28;20681;-75
2023/05/03 13:26:32;;;;;;;2.50;2.30;;;;;;;;;;5051797;28;20210;-75
2023/05/03 13:28:58;;;;;;;4.07;2.63;;;;;;;;;;5051768;28;20702;-76
2023/05/03 13:31:29;;;;;;;5.17;2.80;;;;;;;;;;5051875;28;20171;-76
2023/05/03 13:33:55;;;;;;;2.83;2.53;;;;;;;;;;5052022;28;20194;-76
2023/05/03 13:36:25;;;;;;;5.33;2.80;;;;;;;;;;5051670;28;20204;-76
2023/05/03 13:38:52;;;;;;;3.00;2.27;;;;;;;;;;5051231;28;20557;-76
2023/05/03 13:41:19;;;;;;;9.90;2.80;;;;;;;;;;5051634;28;20181;-76
2023/05/03 13:43:45;;;;;;;3.37;2.20;;;;;;;;;;5034112;28;20802;-75
2023/05/03 13:46:11;;;;;;;2.83;2.20;;;;;;;;;;5030767;28;20231;-76
2023/05/03 13:48:38;;;;;;;2.83;2.30;;;;;;;;;;5030459;28;20662;-76
2023/05/03 13:51:08;;;;;;;3.07;2.50;;;;;;;;;;5031827;28;20698;-76
2023/05/03 13:53:34;;;;;;;3.30;2.40;;;;;;;;;;5045149;28;20673;-74
2023/05/03 13:56:00;;;;;;;3.30;2.60;;;;;;;;;;5051746;28;20191;-76
2023/05/03 13:58:26;;;;;;;4.77;2.33;;;;;;;;;;5051351;28;20235;-76
2023/05/03 14:00:52;;;;;;;3.83;2.40;;;;;;;;;;5051443;28;20198;-76
2023/05/03 14:03:18;;;;;;;3.93;2.23;;;;;;;;;;5051194;28;20585;-76
2023/05/03 14:05:45;;;;;;;4.43;2.30;;;;;;;;;;5050667;28;20230;-76
2023/05/03 14:08:11;;;;;;;5.20;2.30;;;;;;;;;;5050708;28;20198;-76
2023/05/03 14:10:38;;;;;;;2.63;2.17;;;;;;;;;;5051605;28;20263;-75
2023/05/03 14:13:04;;;;;;;3.70;2.40;;;;;;;;;;5050568;28;20631;-76
2023/05/03 14:15:30;;;;;;;3.00;2.37;;;;;;;;;;5051291;28;20450;-76
2023/05/03 14:17:56;;;;;;;6.07;2.67;;;;;;;;;;5051022;28;20215;-76
2023/05/03 14:20:22;;;;;;;3.30;2.50;;;;;;;;;;5051321;28;20265;-76
2023/05/03 14:22:49;;;;;;;3.37;2.37;;;;;;;;;;5050667;28;20201;-76
2023/05/03 14:25:15;;;;;;;2.70;2.20;;;;;;;;;;5051002;28;20176;-76
2023/05/03 14:27:42;;;;;;;3.17;2.47;;;;;;;;;;5051194;28;20199;-75
2023/05/03 14:30:09;;;;;;;2.93;2.17;;;;;;;;;;5050971;28;20185;-76
2023/05/03 14:32:35;;;;;;;4.43;2.20;;;;;;;;;;5046188;28;20183;-75
2023/05/03 14:35:01;;;;;;;3.53;2.00;;;;;;;;;;5029952;28;20598;-76
2023/05/03 14:37:28;;;;;;;3.93;2.07;;;;;;;;;;5031250;28;20259;-76
2023/05/03 14:39:54;;;;;;;3.30;2.00;;;;;;;;;;5030863;28;20191;-75
2023/05/03 14:42:20;;;;;;;4.80;2.33;;;;;;;;;;5030608;28;20275;-76